createdAt,value
2018-03-27T00:01:53.761Z,20.60
2018-03-27T00:04:22.328Z,21.03
2018-03-27T00:06:51.256Z,29.53
2018-03-27T00:09:19.814Z,24.37
2018-03-27T00:11:48.380Z,24.57
2018-03-27T00:14:17.750Z,25.23
2018-03-27T00:16:46.313Z,24.83
2018-03-27T00:19:14.876Z,23.83
2018-03-27T00:21:43.482Z,26.80
2018-03-27T00:24:12.049Z,24.30
2018-03-27T00:26:58.359Z,27.47
2018-03-27T00:29:44.714Z,30.03
2018-03-27T00:32:31.044Z,27.67
2018-03-27T00:35:17.199Z,26.80
2018-03-27T00:38:04.268Z,24.53
2018-03-27T00:40:43.041Z,25.73
2018-03-27T00:43:13.521Z,24.33
2018-03-27T00:45:42.180Z,23.47
2018-03-27T00:48:10.732Z,23.43
2018-03-27T00:50:40.240Z,21.57
2018-03-27T00:53:09.568Z,19.50
2018-03-27T00:55:38.137Z,17.60
2018-03-27T00:58:06.737Z,18.47
2018-03-27T01:00:35.308Z,17.30
2018-03-27T01:03:03.869Z,17.67
2018-03-27T01:05:33.240Z,17.80
2018-03-27T01:08:01.817Z,18.20
2018-03-27T01:10:30.393Z,18.20
2018-03-27T01:12:58.997Z,18.47
2018-03-27T01:15:27.568Z,17.80
2018-03-27T01:17:56.124Z,18.90
2018-03-27T01:20:25.136Z,19.80
2018-03-27T01:22:53.689Z,25.23
2018-03-27T01:25:22.248Z,25.67
2018-03-27T01:27:51.768Z,23.17
2018-03-27T01:30:20.336Z,24.27
2018-03-27T01:32:49.656Z,22.80
2018-03-27T01:35:18.471Z,25.23
2018-03-27T01:37:47.028Z,24.10
2018-03-27T01:40:15.600Z,21.20
2018-03-27T01:42:45.147Z,21.07
2018-03-27T01:45:13.704Z,21.70
2018-03-27T01:47:42.273Z,21.80
2018-03-27T01:50:12.648Z,21.93
2018-03-27T01:52:41.196Z,21.40
2018-03-27T01:55:09.763Z,21.63
2018-03-27T01:57:38.399Z,20.27
2018-03-27T02:00:07.016Z,20.77
2018-03-27T02:02:36.352Z,17.03
2018-03-27T02:05:05.024Z,20.47
2018-03-27T02:07:33.597Z,19.97
2018-03-27T02:10:02.920Z,35.27
2018-03-27T02:12:37.062Z,35.50
2018-03-27T02:15:11.033Z,28.63
2018-03-27T02:17:45.140Z,22.43
2018-03-27T02:20:19.216Z,25.13
2018-03-27T02:25:53.095Z,25.53
2018-03-27T02:28:21.710Z,22.97
2018-03-27T02:30:50.272Z,23.93
2018-03-27T02:33:18.878Z,23.63
2018-03-27T02:35:47.762Z,23.47
2018-03-27T02:38:16.336Z,23.03
2018-03-27T02:40:44.892Z,25.57
2018-03-27T02:43:14.304Z,25.67
2018-03-27T02:45:42.877Z,25.53
2018-03-27T02:48:12.204Z,25.30
2018-03-27T02:50:41.936Z,29.00
2018-03-27T02:53:10.501Z,30.27
2018-03-27T02:55:39.066Z,23.50
2018-03-27T02:58:07.868Z,20.37
2018-03-27T03:00:36.436Z,15.73
2018-03-27T03:03:04.996Z,16.53
2018-03-27T03:05:34.770Z,16.33
2018-03-27T03:08:03.343Z,14.37
2018-03-27T03:10:31.949Z,16.00
2018-03-27T03:13:00.573Z,16.13
2018-03-27T03:15:29.901Z,16.33
2018-03-27T03:17:58.499Z,15.77
2018-03-27T03:20:27.117Z,16.90
2018-03-27T03:22:56.448Z,16.50
2018-03-27T03:25:25.005Z,16.33
2018-03-27T03:27:54.528Z,16.37
2018-03-27T03:30:23.854Z,16.63
2018-03-27T03:32:52.417Z,33.27
2018-03-27T03:35:21.120Z,32.30
2018-03-27T03:37:49.685Z,31.17
2018-03-27T03:40:18.255Z,37.43
2018-03-27T03:42:47.814Z,53.17
2018-03-27T03:45:16.395Z,59.03
2018-03-27T03:47:44.953Z,93.27
2018-03-27T03:50:13.708Z,49.83
2018-03-27T03:52:43.033Z,42.07
2018-03-27T03:55:11.608Z,34.83
2018-03-27T03:57:40.976Z,29.20
2018-03-27T04:00:09.556Z,29.13
2018-03-27T04:02:38.127Z,30.70
2018-03-27T04:05:07.127Z,29.43
2018-03-27T04:07:35.696Z,30.57
2018-03-27T04:10:04.329Z,46.23
2018-03-27T04:12:33.707Z,41.17
2018-03-27T04:15:02.272Z,37.10
2018-03-27T04:17:30.853Z,32.93
2018-03-27T04:19:59.641Z,30.87
2018-03-27T04:22:28.221Z,23.80
2018-03-27T04:24:56.789Z,23.77
2018-03-27T04:27:25.413Z,23.73
2018-03-27T04:29:53.980Z,38.17
2018-03-27T04:32:22.592Z,43.30
2018-03-27T04:34:51.984Z,42.17
2018-03-27T04:37:20.547Z,31.40
2018-03-27T04:39:49.108Z,31.53
2018-03-27T04:42:17.723Z,28.33
2018-03-27T04:47:26.277Z,33.23
2018-03-27T04:49:54.848Z,36.43
2018-03-27T04:52:23.419Z,34.43
2018-03-27T04:55:25.171Z,35.57
2018-03-27T04:57:53.733Z,36.07
2018-03-27T05:00:22.295Z,33.83
2018-03-27T05:02:50.955Z,34.70
2018-03-27T05:05:19.561Z,39.70
2018-03-27T05:07:48.132Z,46.17
2018-03-27T05:10:17.509Z,44.70
2018-03-27T05:12:46.074Z,40.27
2018-03-27T05:15:14.640Z,42.47
2018-03-27T05:17:43.649Z,38.53
2018-03-27T05:20:12.273Z,38.50
2018-03-27T05:22:41.645Z,37.43
2018-03-27T05:25:10.282Z,43.30
2018-03-27T05:27:38.859Z,39.57
2018-03-27T05:30:07.432Z,40.80
2018-03-27T05:32:36.816Z,41.70
2018-03-27T05:35:05.387Z,37.67
2018-03-27T05:37:33.965Z,40.73
2018-03-27T05:40:02.608Z,46.63
2018-03-27T05:42:31.181Z,44.50
2018-03-27T05:45:00.535Z,42.43
2018-03-27T05:47:29.304Z,43.20
2018-03-27T05:49:57.868Z,41.50
2018-03-27T05:52:26.441Z,31.03
2018-03-27T05:54:55.256Z,32.73
2018-03-27T05:57:23.832Z,32.10
2018-03-27T05:59:52.448Z,82.57
2018-03-27T06:02:21.836Z,47.30
2018-03-27T06:04:50.404Z,36.27
2018-03-27T06:07:18.992Z,40.47
2018-03-27T06:09:47.962Z,37.03
2018-03-27T06:12:16.536Z,28.17
2018-03-27T06:14:45.109Z,29.80
2018-03-27T06:17:14.587Z,37.60
2018-03-27T06:19:43.194Z,38.27
2018-03-27T06:22:12.524Z,27.83
2018-03-27T06:24:41.308Z,32.97
2018-03-27T06:27:09.876Z,32.60
2018-03-27T06:29:38.448Z,36.03
2018-03-27T06:32:07.169Z,31.07
2018-03-27T06:34:36.520Z,28.67
2018-03-27T06:37:05.103Z,27.20
2018-03-27T06:39:33.829Z,34.83
2018-03-27T06:42:02.457Z,31.90
2018-03-27T06:44:31.017Z,29.60
2018-03-27T06:47:00.498Z,34.33
2018-03-27T06:49:29.065Z,42.30
2018-03-27T06:51:57.641Z,27.10
2018-03-27T06:54:26.545Z,25.43
2018-03-27T06:56:55.321Z,25.73
2018-03-27T06:59:23.893Z,25.40
2018-03-27T07:01:52.605Z,30.70
2018-03-27T07:04:21.184Z,26.00
2018-03-27T07:06:49.761Z,26.23
2018-03-27T07:09:19.398Z,28.60
2018-03-27T07:11:48.005Z,26.00
2018-03-27T07:14:16.599Z,26.03
2018-03-27T07:16:45.449Z,22.13
2018-03-27T07:19:14.106Z,25.50
2018-03-27T07:21:42.677Z,26.00
2018-03-27T07:24:11.303Z,28.03
2018-03-27T07:26:39.868Z,26.53
2018-03-27T07:29:08.466Z,26.50
2018-03-27T07:31:38.045Z,33.97
2018-03-27T07:34:06.616Z,30.63
2018-03-27T07:36:35.193Z,25.73
2018-03-27T07:39:04.102Z,73.73
2018-03-27T07:41:32.673Z,38.83
2018-03-27T07:44:01.248Z,43.10
2018-03-27T07:46:29.868Z,36.27
2018-03-27T07:48:58.448Z,36.00
2018-03-27T07:51:27.023Z,45.50
2018-03-27T07:53:55.641Z,34.83
2018-03-27T07:56:25.002Z,41.23
2018-03-27T07:58:53.573Z,41.20
2018-03-27T08:01:22.381Z,34.83
2018-03-27T08:03:50.961Z,32.37
2018-03-27T08:06:19.544Z,32.93
2018-03-27T08:08:48.437Z,36.50
2018-03-27T08:11:17.046Z,27.43
2018-03-27T08:13:45.660Z,22.70
2018-03-27T08:16:14.438Z,26.50
2018-03-27T08:18:43.799Z,23.70
2018-03-27T08:21:12.386Z,24.43
2018-03-27T08:23:41.014Z,24.23
2018-03-27T08:26:10.373Z,23.77
2018-03-27T08:28:39.081Z,22.33
2018-03-27T08:31:08.508Z,22.97
2018-03-27T08:33:37.865Z,23.43
2018-03-27T08:36:06.441Z,24.10
2018-03-27T08:38:35.227Z,23.57
2018-03-27T08:41:04.637Z,22.40
2018-03-27T08:43:33.216Z,26.47
2018-03-27T08:46:01.896Z,25.07
2018-03-27T08:48:30.485Z,22.00
2018-03-27T08:50:59.072Z,24.90
2018-03-27T08:53:27.845Z,23.37
2018-03-27T08:55:56.421Z,25.10
2018-03-27T08:58:24.993Z,23.60
2018-03-27T09:00:53.620Z,25.37
2018-03-27T09:03:22.198Z,22.30
2018-03-27T09:05:50.807Z,21.90
2018-03-27T09:08:19.617Z,22.27
2018-03-27T09:10:48.208Z,20.53
2018-03-27T09:13:16.788Z,19.47
2018-03-27T09:15:45.518Z,20.30
2018-03-27T09:18:14.129Z,18.73
2018-03-27T09:20:42.707Z,19.77
2018-03-27T09:23:11.677Z,20.20
2018-03-27T09:25:40.265Z,19.83
2018-03-27T09:28:09.610Z,16.23
2018-03-27T09:30:39.164Z,16.93
2018-03-27T09:33:07.754Z,17.23
2018-03-27T09:35:36.382Z,16.83
2018-03-27T09:38:05.940Z,15.90
2018-03-27T09:40:34.512Z,14.40
2018-03-27T09:43:03.090Z,17.57
2018-03-27T09:45:31.954Z,17.13
2018-03-27T09:48:01.274Z,18.20
2018-03-27T09:50:29.844Z,20.20
2018-03-27T09:52:58.640Z,16.40
2018-03-27T09:55:27.976Z,16.10
2018-03-27T09:57:56.552Z,13.37
2018-03-27T10:00:31.791Z,14.37
2018-03-27T10:03:00.369Z,10.90
2018-03-27T10:05:28.953Z,12.77
2018-03-27T10:07:57.580Z,14.70
2018-03-27T10:10:26.917Z,12.00
2018-03-27T10:12:55.497Z,13.33
2018-03-27T10:15:24.209Z,11.57
2018-03-27T10:17:52.789Z,11.30
2018-03-27T10:20:21.379Z,11.30
2018-03-27T10:22:50.039Z,12.43
2018-03-27T10:25:18.622Z,9.90
2018-03-27T10:27:47.193Z,10.37
2018-03-27T10:30:15.848Z,13.17
2018-03-27T10:32:44.420Z,9.97
2018-03-27T10:35:13.009Z,12.27
2018-03-27T10:37:41.881Z,11.07
2018-03-27T10:40:10.469Z,10.40
2018-03-27T10:42:39.040Z,10.93
2018-03-27T10:45:08.038Z,12.13
2018-03-27T10:47:37.377Z,11.73
2018-03-27T10:50:06.720Z,10.00
2018-03-27T10:52:35.345Z,10.83
2018-03-27T10:55:03.956Z,11.80
2018-03-27T10:57:33.305Z,10.73
2018-03-27T11:00:01.959Z,12.73
2018-03-27T11:02:30.533Z,17.97
2018-03-27T11:04:59.108Z,19.50
2018-03-27T11:07:28.665Z,18.30
2018-03-27T11:09:57.295Z,25.07
2018-03-27T11:12:26.659Z,19.07
2018-03-27T11:14:55.285Z,15.73
2018-03-27T11:17:24.636Z,16.87
2018-03-27T11:19:53.221Z,19.67
2018-03-27T11:22:21.859Z,20.97
2018-03-27T11:24:50.438Z,17.47
2018-03-27T11:27:19.778Z,21.70
2018-03-27T11:29:48.545Z,22.97
2018-03-27T11:32:17.132Z,19.27
2018-03-27T11:34:45.724Z,19.60
2018-03-27T11:37:14.539Z,17.07
2018-03-27T11:39:43.117Z,20.97
2018-03-27T11:42:11.700Z,19.50
2018-03-27T11:44:40.437Z,17.23
2018-03-27T11:47:09.777Z,21.27
2018-03-27T11:49:38.352Z,17.77
2018-03-27T11:52:07.126Z,15.10
2018-03-27T11:54:35.790Z,14.33
2018-03-27T11:57:05.149Z,13.07
2018-03-27T11:59:34.753Z,16.10
2018-03-27T12:02:03.397Z,12.40
2018-03-27T12:04:32.744Z,13.43
2018-03-27T12:07:01.396Z,15.20
2018-03-27T12:09:29.981Z,18.27
2018-03-27T12:11:58.560Z,14.70
2018-03-27T12:14:27.285Z,16.27
2018-03-27T12:16:55.866Z,14.87
2018-03-27T12:19:24.445Z,14.60
2018-03-27T12:21:53.068Z,19.37
2018-03-27T12:24:22.438Z,13.80
2018-03-27T12:26:51.013Z,13.83
2018-03-27T12:29:19.644Z,13.30
2018-03-27T12:31:48.986Z,14.87
2018-03-27T12:34:17.566Z,15.77
2018-03-27T12:36:46.309Z,12.47
2018-03-27T12:39:15.657Z,15.43
2018-03-27T12:41:44.218Z,15.43
2018-03-27T12:44:12.917Z,17.03
2018-03-27T12:46:41.476Z,16.60
2018-03-27T12:49:10.801Z,15.03
2018-03-27T12:51:39.417Z,14.50
2018-03-27T12:54:07.977Z,19.17
2018-03-27T12:56:36.541Z,15.10
2018-03-27T12:59:05.495Z,12.10
2018-03-27T13:01:34.058Z,12.50
2018-03-27T13:04:02.616Z,11.33
2018-03-27T13:06:31.229Z,13.63
2018-03-27T13:08:59.809Z,12.60
2018-03-27T13:11:28.368Z,12.13
2018-03-27T13:13:56.981Z,12.17
2018-03-27T13:16:25.536Z,10.80
2018-03-27T13:18:54.090Z,8.13
2018-03-27T13:21:22.706Z,10.07
2018-03-27T13:23:51.257Z,9.13
2018-03-27T13:26:20.577Z,12.93
2018-03-27T13:28:49.186Z,9.67
2018-03-27T13:31:17.738Z,8.83
2018-03-27T13:33:46.300Z,9.63
2018-03-27T13:36:15.700Z,8.60
2018-03-27T13:38:45.018Z,8.23
2018-03-27T13:41:13.574Z,8.50
2018-03-27T13:43:42.957Z,9.37
2018-03-27T13:46:11.524Z,9.83
2018-03-27T13:48:40.080Z,9.83
2018-03-27T13:51:08.697Z,11.10
2018-03-27T13:53:37.252Z,10.17
2018-03-27T13:56:05.817Z,14.20
2018-03-27T13:58:34.432Z,13.03
2018-03-27T14:01:02.994Z,11.63
2018-03-27T14:03:31.554Z,7.77
2018-03-27T14:06:00.962Z,7.93
2018-03-27T14:08:29.521Z,7.43
2018-03-27T14:10:58.096Z,8.50
2018-03-27T14:13:26.800Z,6.63
2018-03-27T14:15:56.125Z,7.63
2018-03-27T14:18:24.687Z,8.60
2018-03-27T14:20:54.053Z,8.67
2018-03-27T14:23:22.609Z,7.83
2018-03-27T14:25:51.165Z,7.13
2018-03-27T14:28:20.621Z,9.10
2018-03-27T14:30:49.210Z,9.07
2018-03-27T14:33:17.776Z,9.63
2018-03-27T14:35:46.386Z,8.03
2018-03-27T14:38:14.996Z,7.13
2018-03-27T14:40:44.321Z,9.10
2018-03-27T14:43:13.142Z,8.77
2018-03-27T14:45:41.705Z,11.27
2018-03-27T14:48:10.266Z,7.57
2018-03-27T14:50:38.870Z,6.40
2018-03-27T14:53:07.489Z,7.07
2018-03-27T14:55:36.059Z,7.17
2018-03-27T14:58:04.763Z,7.60
2018-03-27T15:00:33.325Z,7.37
2018-03-27T15:03:01.861Z,8.70
2018-03-27T15:05:31.374Z,8.30
2018-03-27T15:07:59.937Z,10.63
2018-03-27T15:10:29.257Z,9.87
2018-03-27T15:12:57.864Z,12.63
2018-03-27T15:15:26.422Z,18.73
2018-03-27T15:17:55.750Z,17.87
2018-03-27T15:20:24.389Z,12.70
2018-03-27T15:22:53.721Z,14.70
2018-03-27T15:25:24.533Z,12.73
2018-03-27T15:27:53.916Z,11.97
2018-03-27T15:30:23.257Z,14.30
2018-03-27T15:32:51.821Z,10.03
2018-03-27T15:35:21.189Z,9.23
2018-03-27T15:37:49.760Z,11.40
2018-03-27T15:40:19.085Z,12.90
2018-03-27T15:42:48.827Z,20.23
2018-03-27T15:45:17.389Z,45.83
2018-03-27T15:47:46.723Z,28.57
2018-03-27T15:50:15.546Z,15.13
2018-03-27T15:52:44.117Z,15.47
2018-03-27T15:55:12.682Z,13.13
2018-03-27T15:57:41.429Z,16.83
2018-03-27T16:00:09.989Z,15.17
2018-03-27T16:02:38.568Z,10.73
2018-03-27T16:05:07.452Z,9.20
2018-03-27T16:07:36.006Z,8.43
2018-03-27T16:10:04.652Z,8.23
2018-03-27T16:12:33.265Z,8.10
2018-03-27T16:15:01.820Z,7.40
2018-03-27T16:17:31.156Z,7.90
2018-03-27T16:19:59.973Z,7.17
2018-03-27T16:22:28.529Z,8.00
2018-03-27T16:24:57.083Z,13.27
2018-03-27T16:27:26.556Z,28.33
2018-03-27T16:29:55.118Z,35.27
2018-03-27T16:32:23.663Z,42.40
2018-03-27T16:34:53.125Z,45.97
2018-03-27T16:37:21.677Z,42.80
2018-03-27T16:39:50.242Z,43.43
2018-03-27T16:42:18.973Z,47.27
2018-03-27T16:44:48.306Z,47.77
2018-03-27T16:47:17.637Z,44.80
2018-03-27T16:49:46.349Z,44.57
2018-03-27T16:52:14.909Z,22.30
2018-03-27T16:54:43.474Z,16.03
2018-03-27T16:57:13.033Z,13.47
2018-03-27T16:59:42.352Z,32.33
2018-03-27T17:02:10.921Z,31.60
2018-03-27T17:04:39.793Z,43.90
2018-03-27T17:07:08.355Z,30.17
2018-03-27T17:09:36.933Z,32.93
2018-03-27T17:12:05.550Z,38.33
2018-03-27T17:14:34.110Z,37.07
2018-03-27T17:17:02.663Z,42.13
2018-03-27T17:19:32.181Z,51.37
2018-03-27T17:22:00.762Z,43.13
2018-03-27T17:24:30.081Z,40.23
2018-03-27T17:26:58.702Z,22.23
2018-03-27T17:29:27.268Z,21.27
2018-03-27T17:31:55.828Z,22.63
2018-03-27T17:34:24.865Z,29.77
2018-03-27T17:36:53.531Z,31.40
2018-03-27T17:39:27.533Z,36.13
2018-03-27T17:41:56.108Z,35.10
2018-03-27T17:44:24.717Z,129.87
2018-03-27T17:46:53.329Z,101.07
2018-03-27T17:49:22.669Z,110.73
2018-03-27T17:51:51.225Z,96.57
2018-03-27T17:54:20.798Z,92.37
2018-03-27T17:56:49.377Z,95.63
2018-03-27T17:59:17.945Z,85.13
2018-03-27T18:01:46.746Z,132.73
2018-03-27T18:04:15.301Z,53.67
2018-03-27T18:06:43.857Z,91.63
2018-03-27T18:09:13.229Z,40.50
2018-03-27T18:11:41.803Z,39.30
2018-03-27T18:14:10.353Z,35.77
2018-03-27T18:16:38.963Z,33.17
2018-03-27T18:19:09.150Z,31.67
2018-03-27T18:21:37.710Z,26.50
2018-03-27T18:24:07.078Z,15.17
2018-03-27T18:26:35.633Z,11.23
2018-03-27T18:29:04.192Z,10.63
2018-03-27T18:31:33.571Z,11.40
2018-03-27T18:34:02.941Z,10.10
2018-03-27T18:36:31.485Z,9.73
2018-03-27T18:39:00.086Z,8.93
2018-03-27T18:41:28.641Z,9.07
2018-03-27T18:43:57.946Z,9.13
2018-03-27T18:46:26.557Z,10.23
2018-03-27T18:48:55.369Z,10.70
2018-03-27T18:51:23.916Z,9.07
2018-03-27T18:53:52.833Z,10.37
2018-03-27T18:56:21.385Z,14.63
2018-03-27T18:58:49.944Z,13.83
2018-03-27T19:01:19.708Z,11.00
2018-03-27T19:03:49.214Z,13.57
2018-03-27T19:06:17.770Z,13.03
2018-03-27T19:08:46.687Z,15.13
2018-03-27T19:11:15.244Z,19.43
2018-03-27T19:13:43.790Z,22.30
2018-03-27T19:16:13.169Z,14.47
2018-03-27T19:18:41.733Z,14.47
2018-03-27T19:21:10.294Z,13.77
2018-03-27T19:23:38.961Z,13.17
2018-03-27T19:26:07.517Z,14.43
2018-03-27T19:28:36.077Z,16.17
2018-03-27T19:31:05.653Z,17.07
2018-03-27T19:33:34.205Z,18.07
2018-03-27T19:36:02.758Z,19.17
2018-03-27T19:38:32.121Z,19.50
2018-03-27T19:41:00.677Z,17.20
2018-03-27T19:43:29.234Z,18.57
2018-03-27T19:45:57.936Z,16.17
2018-03-27T19:48:26.492Z,15.57
2018-03-27T19:50:55.810Z,16.67
2018-03-27T19:53:24.743Z,31.13
2018-03-27T19:55:53.301Z,16.57
2018-03-27T19:58:21.871Z,15.87
2018-03-27T20:00:50.535Z,16.40
2018-03-27T20:03:19.861Z,15.23
2018-03-27T20:05:48.439Z,14.57
2018-03-27T20:08:17.058Z,15.07
2018-03-27T20:10:45.633Z,15.40
2018-03-27T20:13:14.189Z,15.17
2018-03-27T20:15:42.784Z,15.73
2018-03-27T20:18:11.342Z,16.33
2018-03-27T20:20:40.656Z,16.13
2018-03-27T20:23:09.345Z,14.27
2018-03-27T20:25:37.893Z,13.27
2018-03-27T20:28:07.963Z,13.43
2018-03-27T20:30:36.923Z,14.27
2018-03-27T20:33:06.256Z,13.20
2018-03-27T20:35:34.817Z,12.97
2018-03-27T20:38:03.642Z,13.67
2018-03-27T20:40:32.197Z,14.83
2018-03-27T20:43:00.749Z,14.73
2018-03-27T20:45:30.135Z,13.47
2018-03-27T20:47:58.694Z,13.40
2018-03-27T20:50:27.254Z,12.93
2018-03-27T20:52:56.069Z,14.17
2018-03-27T20:55:24.620Z,35.30
2018-03-27T20:57:53.115Z,41.23
2018-03-27T21:00:21.913Z,22.37
2018-03-27T21:02:50.404Z,18.37
2018-03-27T21:05:18.898Z,17.33
2018-03-27T21:07:47.533Z,16.83
2018-03-27T21:10:16.117Z,29.13
2018-03-27T21:12:44.673Z,29.83
2018-03-27T21:15:14.060Z,29.57
2018-03-27T21:17:42.725Z,38.23
2018-03-27T21:20:11.278Z,39.87
2018-03-27T21:22:40.080Z,40.37
2018-03-27T21:25:08.515Z,31.77
2018-03-27T21:27:37.745Z,18.67
2018-03-27T21:30:06.234Z,13.97
2018-03-27T21:32:34.680Z,11.20
2018-03-27T21:35:03.905Z,12.00
2018-03-27T21:37:32.595Z,11.17
2018-03-27T21:40:01.019Z,11.13
2018-03-27T21:42:29.448Z,10.97
2018-03-27T21:44:57.911Z,12.93
2018-03-27T21:47:27.110Z,10.67
2018-03-27T21:49:56.360Z,10.10
2018-03-27T21:52:24.897Z,11.57
2018-03-27T21:54:53.392Z,12.33
2018-03-27T21:57:21.883Z,11.70
2018-03-27T21:59:50.420Z,12.27
2018-03-27T22:02:19.708Z,12.13
2018-03-27T22:04:48.261Z,12.30
2018-03-27T22:07:16.989Z,12.27
2018-03-27T22:09:46.251Z,12.23
2018-03-27T22:12:14.804Z,12.30
2018-03-27T22:14:43.760Z,12.23
2018-03-27T22:17:13.756Z,12.60
2018-03-27T22:19:42.252Z,12.73
2018-03-27T22:22:10.816Z,13.23
2018-03-27T22:24:39.304Z,13.53
2018-03-27T22:27:07.804Z,15.27
2018-03-27T22:29:37.109Z,15.60
2018-03-27T22:32:06.440Z,14.70
2018-03-27T22:34:34.948Z,13.93
2018-03-27T22:37:03.494Z,16.33
2018-03-27T22:39:32.045Z,15.97
2018-03-27T22:42:00.602Z,15.50
2018-03-27T22:44:29.204Z,13.90
2018-03-27T22:46:57.782Z,14.90
2018-03-27T22:49:26.336Z,17.40
2018-03-27T22:51:55.252Z,17.87
2018-03-27T22:54:23.748Z,17.27
2018-03-27T22:56:52.238Z,16.30
2018-03-27T22:59:21.547Z,17.13
2018-03-27T23:01:50.800Z,14.73
2018-03-27T23:04:19.292Z,12.70
2018-03-27T23:06:47.844Z,15.03
2018-03-27T23:09:16.337Z,14.17
2018-03-27T23:11:44.832Z,13.03
2018-03-27T23:14:13.755Z,14.07
2018-03-27T23:16:43.818Z,13.90
2018-03-27T23:19:12.308Z,12.60
2018-03-27T23:21:41.002Z,13.43
2018-03-27T23:24:09.566Z,12.97
2018-03-27T23:26:38.120Z,12.47
2018-03-27T23:29:07.056Z,11.67
2018-03-27T23:31:35.675Z,11.53
2018-03-27T23:34:04.229Z,10.77
2018-03-27T23:36:32.835Z,10.13
2018-03-27T23:39:01.392Z,11.00
2018-03-27T23:41:29.951Z,9.77
2018-03-27T23:43:58.568Z,10.43
2018-03-27T23:46:27.124Z,10.80
2018-03-27T23:48:55.681Z,11.03
2018-03-27T23:51:24.324Z,11.20
2018-03-27T23:53:52.888Z,10.83
2018-03-27T23:56:21.437Z,10.10
2018-03-27T23:58:50.272Z,10.43
